sensor_id;sensor_type;location;lat;lon;timestamp;P1;durP1;ratioP1;P2;durP2;ratioP2
42802;SDS011;28447;48.682;9.022;2023-05-29T04:02:55;11.20;;;6.80;;
42802;SDS011;28447;48.682;9.022;2023-05-29T04:05:21;10.80;;;7.37;;
42802;SDS011;28447;48.682;9.022;2023-05-29T04:07:47;9.50;;;6.67;;
42802;SDS011;28447;48.682;9.022;2023-05-29T04:10:13;10.80;;;6.63;;
42802;SDS011;28447;48.682;9.022;2023-05-29T04:12:39;11.00;;;7.07;;
42802;SDS011;28447;48.682;9.022;2023-05-29T04:15:05;12.47;;;7.87;;
42802;SDS011;28447;48.682;9.022;2023-05-29T04:17:31;13.30;;;7.60;;
42802;SDS011;28447;48.682;9.022;2023-05-29T04:19:56;10.10;;;6.43;;
42802;SDS011;28447;48.682;9.022;2023-05-29T04:22:22;12.30;;;6.40;;
42802;SDS011;28447;48.682;9.022;2023-05-29T04:24:48;10.10;;;6.90;;
42802;SDS011;28447;48.682;9.022;2023-05-29T04:27:13;11.07;;;6.77;;
42802;SDS011;28447;48.682;9.022;2023-05-29T04:29:40;12.37;;;8.03;;
42802;SDS011;28447;48.682;9.022;2023-05-29T04:32:09;11.83;;;7.83;;
42802;SDS011;28447;48.682;9.022;2023-05-29T04:34:36;15.63;;;7.47;;
42802;SDS011;28447;48.682;9.022;2023-05-29T04:37:03;14.30;;;7.20;;
42802;SDS011;28447;48.682;9.022;2023-05-29T04:39:30;9.60;;;6.33;;
42802;SDS011;28447;48.682;9.022;2023-05-29T04:41:56;11.10;;;7.70;;
42802;SDS011;28447;48.682;9.022;2023-05-29T04:44:24;14.00;;;8.10;;
42802;SDS011;28447;48.682;9.022;2023-05-29T04:46:54;14.67;;;7.30;;
42802;SDS011;28447;48.682;9.022;2023-05-29T04:49:19;11.70;;;7.47;;
42802;SDS011;28447;48.682;9.022;2023-05-29T04:51:46;10.60;;;6.77;;
42802;SDS011;28447;48.682;9.022;2023-05-29T04:54:12;12.80;;;7.23;;
42802;SDS011;28447;48.682;9.022;2023-05-29T04:56:38;14.20;;;7.40;;
42802;SDS011;28447;48.682;9.022;2023-05-29T04:59:05;14.67;;;7.80;;
42802;SDS011;28447;48.682;9.022;2023-05-29T05:01:32;17.00;;;8.10;;
42802;SDS011;28447;48.682;9.022;2023-05-29T05:03:58;15.20;;;8.57;;
42802;SDS011;28447;48.682;9.022;2023-05-29T05:06:25;13.60;;;7.83;;
42802;SDS011;28447;48.682;9.022;2023-05-29T05:08:51;14.37;;;8.27;;
42802;SDS011;28447;48.682;9.022;2023-05-29T05:11:21;14.93;;;8.27;;
42802;SDS011;28447;48.682;9.022;2023-05-29T05:13:47;12.57;;;7.47;;
42802;SDS011;28447;48.682;9.022;2023-05-29T05:16:13;11.97;;;7.80;;
42802;SDS011;28447;48.682;9.022;2023-05-29T05:18:39;12.17;;;7.90;;
42802;SDS011;28447;48.682;9.022;2023-05-29T05:21:04;14.53;;;8.57;;
42802;SDS011;28447;48.682;9.022;2023-05-29T05:23:31;11.20;;;7.57;;
42802;SDS011;28447;48.682;9.022;2023-05-29T05:25:57;19.23;;;7.10;;
42802;SDS011;28447;48.682;9.022;2023-05-29T05:28:22;14.00;;;7.27;;
42802;SDS011;28447;48.682;9.022;2023-05-29T05:30:48;13.48;;;7.80;;
42802;SDS011;28447;48.682;9.022;2023-05-29T05:33:14;11.40;;;6.87;;
42802;SDS011;28447;48.682;9.022;2023-05-29T05:35:39;11.40;;;7.03;;
42802;SDS011;28447;48.682;9.022;2023-05-29T05:38:05;11.20;;;7.43;;
42802;SDS011;28447;48.682;9.022;2023-05-29T05:40:31;11.60;;;7.70;;
42802;SDS011;28447;48.682;9.022;2023-05-29T05:42:57;13.77;;;8.40;;
42802;SDS011;28447;48.682;9.022;2023-05-29T05:45:23;14.43;;;7.87;;
42802;SDS011;28447;48.682;9.022;2023-05-29T05:47:49;11.50;;;8.00;;
42802;SDS011;28447;48.682;9.022;2023-05-29T05:50:15;9.60;;;6.63;;
42802;SDS011;28447;48.682;9.022;2023-05-29T05:52:40;11.37;;;7.53;;
42802;SDS011;28447;48.682;9.022;2023-05-29T05:55:06;11.90;;;7.20;;
42802;SDS011;28447;48.682;9.022;2023-05-29T05:57:32;13.20;;;8.00;;
42802;SDS011;28447;48.682;9.022;2023-05-29T05:59:59;14.03;;;7.60;;
42802;SDS011;28447;48.682;9.022;2023-05-29T06:02:25;11.80;;;6.80;;
42802;SDS011;28447;48.682;9.022;2023-05-29T06:04:51;11.00;;;6.97;;
42802;SDS011;28447;48.682;9.022;2023-05-29T06:07:17;15.97;;;8.03;;
42802;SDS011;28447;48.682;9.022;2023-05-29T06:09:43;10.97;;;7.10;;
42802;SDS011;28447;48.682;9.022;2023-05-29T06:12:08;17.83;;;8.47;;
42802;SDS011;28447;48.682;9.022;2023-05-29T06:14:34;15.37;;;6.60;;
42802;SDS011;28447;48.682;9.022;2023-05-29T06:17:00;10.20;;;7.00;;
42802;SDS011;28447;48.682;9.022;2023-05-29T06:19:26;12.70;;;7.57;;
42802;SDS011;28447;48.682;9.022;2023-05-29T06:21:51;9.90;;;7.53;;
42802;SDS011;28447;48.682;9.022;2023-05-29T06:24:17;12.23;;;7.00;;
42802;SDS011;28447;48.682;9.022;2023-05-29T06:26:42;12.10;;;7.23;;
42802;SDS011;28447;48.682;9.022;2023-05-29T06:29:08;10.97;;;7.40;;
42802;SDS011;28447;48.682;9.022;2023-05-29T06:31:34;12.70;;;7.20;;
42802;SDS011;28447;48.682;9.022;2023-05-29T06:33:59;11.10;;;6.83;;
42802;SDS011;28447;48.682;9.022;2023-05-29T06:36:25;9.60;;;6.73;;
42802;SDS011;28447;48.682;9.022;2023-05-29T06:38:51;9.37;;;6.70;;
42802;SDS011;28447;48.682;9.022;2023-05-29T06:41:17;12.53;;;7.30;;
42802;SDS011;28447;48.682;9.022;2023-05-29T06:43:43;9.93;;;6.13;;
42802;SDS011;28447;48.682;9.022;2023-05-29T06:46:09;9.67;;;6.63;;
42802;SDS011;28447;48.682;9.022;2023-05-29T06:48:35;11.33;;;6.50;;
42802;SDS011;28447;48.682;9.022;2023-05-29T06:51:01;9.30;;;5.80;;
42802;SDS011;28447;48.682;9.022;2023-05-29T06:53:34;12.30;;;6.63;;
42802;SDS011;28447;48.682;9.022;2023-05-29T06:56:03;11.27;;;6.60;;
42802;SDS011;28447;48.682;9.022;2023-05-29T06:58:30;8.53;;;6.27;;
42802;SDS011;28447;48.682;9.022;2023-05-29T07:00:56;15.03;;;6.97;;
42802;SDS011;28447;48.682;9.022;2023-05-29T07:03:25;10.43;;;7.00;;
42802;SDS011;28447;48.682;9.022;2023-05-29T07:05:51;9.23;;;6.13;;
42802;SDS011;28447;48.682;9.022;2023-05-29T07:08:17;8.37;;;5.87;;
42802;SDS011;28447;48.682;9.022;2023-05-29T07:10:43;8.67;;;5.50;;
42802;SDS011;28447;48.682;9.022;2023-05-29T07:13:09;9.43;;;6.53;;
42802;SDS011;28447;48.682;9.022;2023-05-29T07:15:37;6.90;;;5.60;;
42802;SDS011;28447;48.682;9.022;2023-05-29T07:18:03;9.60;;;5.90;;
42802;SDS011;28447;48.682;9.022;2023-05-29T07:20:29;8.00;;;5.13;;
42802;SDS011;28447;48.682;9.022;2023-05-29T07:22:54;8.70;;;5.60;;
42802;SDS011;28447;48.682;9.022;2023-05-29T07:25:20;10.07;;;5.70;;
42802;SDS011;28447;48.682;9.022;2023-05-29T07:27:46;7.63;;;5.50;;
42802;SDS011;28447;48.682;9.022;2023-05-29T07:30:11;8.40;;;5.60;;
42802;SDS011;28447;48.682;9.022;2023-05-29T07:32:37;8.07;;;5.63;;
42802;SDS011;28447;48.682;9.022;2023-05-29T07:35:03;11.70;;;5.40;;
42802;SDS011;28447;48.682;9.022;2023-05-29T07:37:29;7.97;;;5.70;;
42802;SDS011;28447;48.682;9.022;2023-05-29T07:39:56;8.27;;;5.93;;
42802;SDS011;28447;48.682;9.022;2023-05-29T07:42:22;6.90;;;5.23;;
42802;SDS011;28447;48.682;9.022;2023-05-29T07:44:48;10.53;;;6.97;;
42802;SDS011;28447;48.682;9.022;2023-05-29T07:47:13;30.47;;;6.90;;
42802;SDS011;28447;48.682;9.022;2023-05-29T07:49:40;8.63;;;6.10;;
42802;SDS011;28447;48.682;9.022;2023-05-29T07:52:05;7.93;;;5.23;;
42802;SDS011;28447;48.682;9.022;2023-05-29T07:54:31;8.90;;;5.70;;
42802;SDS011;28447;48.682;9.022;2023-05-29T07:57:01;8.70;;;5.30;;
42802;SDS011;28447;48.682;9.022;2023-05-29T07:59:34;7.17;;;5.47;;
42802;SDS011;28447;48.682;9.022;2023-05-29T08:02:05;8.63;;;5.90;;
42802;SDS011;28447;48.682;9.022;2023-05-29T08:04:31;6.47;;;4.90;;
42802;SDS011;28447;48.682;9.022;2023-05-29T08:06:57;7.67;;;5.80;;
42802;SDS011;28447;48.682;9.022;2023-05-29T08:09:23;9.20;;;6.50;;
42802;SDS011;28447;48.682;9.022;2023-05-29T08:11:49;8.20;;;5.80;;
42802;SDS011;28447;48.682;9.022;2023-05-29T08:14:15;8.70;;;6.20;;
42802;SDS011;28447;48.682;9.022;2023-05-29T08:16:41;8.80;;;5.63;;
42802;SDS011;28447;48.682;9.022;2023-05-29T08:19:07;7.57;;;5.87;;
42802;SDS011;28447;48.682;9.022;2023-05-29T08:21:32;8.03;;;5.80;;
42802;SDS011;28447;48.682;9.022;2023-05-29T08:23:58;9.43;;;5.90;;
42802;SDS011;28447;48.682;9.022;2023-05-29T08:26:24;7.17;;;5.63;;
42802;SDS011;28447;48.682;9.022;2023-05-29T08:28:51;8.87;;;5.97;;
42802;SDS011;28447;48.682;9.022;2023-05-29T08:31:16;9.27;;;6.77;;
42802;SDS011;28447;48.682;9.022;2023-05-29T08:33:42;9.03;;;6.10;;
42802;SDS011;28447;48.682;9.022;2023-05-29T08:36:07;9.63;;;6.00;;
42802;SDS011;28447;48.682;9.022;2023-05-29T08:38:33;8.63;;;5.75;;
42802;SDS011;28447;48.682;9.022;2023-05-29T08:41:00;7.70;;;5.78;;
42802;SDS011;28447;48.682;9.022;2023-05-29T08:43:29;8.57;;;6.10;;
42802;SDS011;28447;48.682;9.022;2023-05-29T08:45:59;8.02;;;5.70;;
42802;SDS011;28447;48.682;9.022;2023-05-29T08:48:27;13.90;;;5.90;;
42802;SDS011;28447;48.682;9.022;2023-05-29T08:50:55;7.65;;;5.97;;
42802;SDS011;28447;48.682;9.022;2023-05-29T08:53:22;12.48;;;5.55;;
42802;SDS011;28447;48.682;9.022;2023-05-29T08:55:48;10.63;;;5.70;;
42802;SDS011;28447;48.682;9.022;2023-05-29T08:58:21;8.15;;;5.88;;
42802;SDS011;28447;48.682;9.022;2023-05-29T09:00:47;8.13;;;6.28;;
42802;SDS011;28447;48.682;9.022;2023-05-29T09:03:14;6.72;;;5.57;;
42802;SDS011;28447;48.682;9.022;2023-05-29T09:05:40;9.02;;;5.32;;
42802;SDS011;28447;48.682;9.022;2023-05-29T09:08:07;8.50;;;5.85;;
42802;SDS011;28447;48.682;9.022;2023-05-29T09:10:34;9.38;;;5.95;;
42802;SDS011;28447;48.682;9.022;2023-05-29T09:13:01;7.50;;;5.72;;
42802;SDS011;28447;48.682;9.022;2023-05-29T09:15:27;7.40;;;5.28;;
42802;SDS011;28447;48.682;9.022;2023-05-29T09:17:56;8.23;;;5.53;;
42802;SDS011;28447;48.682;9.022;2023-05-29T09:20:23;8.10;;;6.40;;
42802;SDS011;28447;48.682;9.022;2023-05-29T09:22:56;7.53;;;5.95;;
42802;SDS011;28447;48.682;9.022;2023-05-29T09:25:24;7.75;;;5.25;;
42802;SDS011;28447;48.682;9.022;2023-05-29T09:27:55;8.15;;;5.97;;
42802;SDS011;28447;48.682;9.022;2023-05-29T09:33:05;8.27;;;5.88;;
42802;SDS011;28447;48.682;9.022;2023-05-29T09:35:37;8.57;;;5.40;;
42802;SDS011;28447;48.682;9.022;2023-05-29T09:38:10;7.97;;;6.57;;
42802;SDS011;28447;48.682;9.022;2023-05-29T09:40:39;7.35;;;5.70;;
42802;SDS011;28447;48.682;9.022;2023-05-29T09:43:14;7.03;;;5.50;;
42802;SDS011;28447;48.682;9.022;2023-05-29T09:45:45;6.10;;;5.30;;
42802;SDS011;28447;48.682;9.022;2023-05-29T09:48:15;6.47;;;5.53;;
42802;SDS011;28447;48.682;9.022;2023-05-29T09:50:47;13.32;;;6.22;;
42802;SDS011;28447;48.682;9.022;2023-05-29T09:53:20;9.80;;;6.07;;
42802;SDS011;28447;48.682;9.022;2023-05-29T09:55:49;9.82;;;5.55;;
42802;SDS011;28447;48.682;9.022;2023-05-29T09:58:17;7.10;;;5.63;;
42802;SDS011;28447;48.682;9.022;2023-05-29T10:00:43;6.68;;;6.03;;
42802;SDS011;28447;48.682;9.022;2023-05-29T10:03:12;9.32;;;6.60;;
42802;SDS011;28447;48.682;9.022;2023-05-29T10:05:39;6.05;;;5.45;;
42802;SDS011;28447;48.682;9.022;2023-05-29T10:08:08;12.07;;;6.50;;
42802;SDS011;28447;48.682;9.022;2023-05-29T10:10:39;6.55;;;5.40;;
42802;SDS011;28447;48.682;9.022;2023-05-29T10:13:08;6.65;;;5.18;;
42802;SDS011;28447;48.682;9.022;2023-05-29T10:15:37;8.52;;;6.07;;
42802;SDS011;28447;48.682;9.022;2023-05-29T10:18:06;7.95;;;5.88;;
42802;SDS011;28447;48.682;9.022;2023-05-29T10:20:38;7.47;;;5.15;;
42802;SDS011;28447;48.682;9.022;2023-05-29T10:23:04;8.68;;;5.78;;
42802;SDS011;28447;48.682;9.022;2023-05-29T10:25:32;6.63;;;5.55;;
42802;SDS011;28447;48.682;9.022;2023-05-29T10:28:00;9.38;;;5.60;;
42802;SDS011;28447;48.682;9.022;2023-05-29T10:30:33;6.13;;;5.45;;
42802;SDS011;28447;48.682;9.022;2023-05-29T10:36:10;8.15;;;5.05;;
42802;SDS011;28447;48.682;9.022;2023-05-29T10:38:40;6.13;;;5.13;;
42802;SDS011;28447;48.682;9.022;2023-05-29T10:43:58;9.10;;;5.95;;
42802;SDS011;28447;48.682;9.022;2023-05-29T10:49:16;7.30;;;6.45;;
42802;SDS011;28447;48.682;9.022;2023-05-29T10:51:46;9.05;;;5.82;;
42802;SDS011;28447;48.682;9.022;2023-05-29T10:54:13;7.82;;;5.43;;
42802;SDS011;28447;48.682;9.022;2023-05-29T10:56:39;6.65;;;5.57;;
42802;SDS011;28447;48.682;9.022;2023-05-29T10:59:07;8.55;;;5.43;;
42802;SDS011;28447;48.682;9.022;2023-05-29T11:01:33;7.35;;;5.40;;
42802;SDS011;28447;48.682;9.022;2023-05-29T11:06:41;6.95;;;6.10;;
42802;SDS011;28447;48.682;9.022;2023-05-29T11:09:25;7.68;;;5.65;;
42802;SDS011;28447;48.682;9.022;2023-05-29T11:15:10;5.57;;;5.00;;
42802;SDS011;28447;48.682;9.022;2023-05-29T11:20:05;6.38;;;5.35;;
42802;SDS011;28447;48.682;9.022;2023-05-29T11:22:49;9.55;;;5.32;;
42802;SDS011;28447;48.682;9.022;2023-05-29T11:25:25;7.82;;;4.78;;
42802;SDS011;28447;48.682;9.022;2023-05-29T11:27:54;6.10;;;4.95;;
42802;SDS011;28447;48.682;9.022;2023-05-29T11:30:20;5.65;;;5.05;;
42802;SDS011;28447;48.682;9.022;2023-05-29T11:32:46;7.03;;;5.50;;
42802;SDS011;28447;48.682;9.022;2023-05-29T11:35:13;9.90;;;5.97;;
42802;SDS011;28447;48.682;9.022;2023-05-29T11:37:40;8.75;;;5.22;;
42802;SDS011;28447;48.682;9.022;2023-05-29T11:40:08;5.90;;;5.32;;
42802;SDS011;28447;48.682;9.022;2023-05-29T11:42:35;7.18;;;5.43;;
42802;SDS011;28447;48.682;9.022;2023-05-29T11:45:13;5.88;;;5.03;;
42802;SDS011;28447;48.682;9.022;2023-05-29T11:47:53;7.15;;;5.18;;
42802;SDS011;28447;48.682;9.022;2023-05-29T11:50:27;7.22;;;4.90;;
42802;SDS011;28447;48.682;9.022;2023-05-29T11:52:53;7.65;;;4.93;;
42802;SDS011;28447;48.682;9.022;2023-05-29T11:55:20;5.28;;;4.68;;
42802;SDS011;28447;48.682;9.022;2023-05-29T11:57:47;7.47;;;5.22;;
42802;SDS011;28447;48.682;9.022;2023-05-29T12:00:18;6.03;;;4.65;;
42802;SDS011;28447;48.682;9.022;2023-05-29T12:02:44;5.53;;;4.75;;
42802;SDS011;28447;48.682;9.022;2023-05-29T12:05:12;9.27;;;5.22;;
42802;SDS011;28447;48.682;9.022;2023-05-29T12:07:50;5.47;;;4.68;;
42802;SDS011;28447;48.682;9.022;2023-05-29T12:10:17;6.13;;;4.30;;
42802;SDS011;28447;48.682;9.022;2023-05-29T12:13:01;7.65;;;4.80;;
42802;SDS011;28447;48.682;9.022;2023-05-29T12:15:27;8.88;;;6.57;;
42802;SDS011;28447;48.682;9.022;2023-05-29T12:17:53;9.57;;;5.25;;
42802;SDS011;28447;48.682;9.022;2023-05-29T12:20:23;7.93;;;5.50;;
42802;SDS011;28447;48.682;9.022;2023-05-29T12:22:51;5.55;;;4.78;;
42802;SDS011;28447;48.682;9.022;2023-05-29T12:25:20;9.18;;;5.22;;
42802;SDS011;28447;48.682;9.022;2023-05-29T12:27:47;7.28;;;4.97;;
42802;SDS011;28447;48.682;9.022;2023-05-29T12:30:14;7.43;;;4.82;;
42802;SDS011;28447;48.682;9.022;2023-05-29T12:32:46;8.80;;;4.97;;
42802;SDS011;28447;48.682;9.022;2023-05-29T12:35:15;5.20;;;4.70;;
42802;SDS011;28447;48.682;9.022;2023-05-29T12:37:57;5.10;;;4.57;;
42802;SDS011;28447;48.682;9.022;2023-05-29T12:40:32;6.15;;;5.40;;
42802;SDS011;28447;48.682;9.022;2023-05-29T12:43:07;6.78;;;4.40;;
42802;SDS011;28447;48.682;9.022;2023-05-29T12:45:36;4.15;;;3.72;;
42802;SDS011;28447;48.682;9.022;2023-05-29T12:48:02;5.95;;;4.93;;
42802;SDS011;28447;48.682;9.022;2023-05-29T12:50:30;5.22;;;4.68;;
42802;SDS011;28447;48.682;9.022;2023-05-29T12:53:01;4.93;;;4.50;;
42802;SDS011;28447;48.682;9.022;2023-05-29T12:55:36;6.28;;;4.85;;
42802;SDS011;28447;48.682;9.022;2023-05-29T12:58:04;12.25;;;4.75;;
42802;SDS011;28447;48.682;9.022;2023-05-29T13:00:31;5.45;;;4.38;;
42802;SDS011;28447;48.682;9.022;2023-05-29T13:02:58;8.05;;;4.55;;
42802;SDS011;28447;48.682;9.022;2023-05-29T13:05:24;6.10;;;4.32;;
42802;SDS011;28447;48.682;9.022;2023-05-29T13:07:50;5.20;;;4.55;;
42802;SDS011;28447;48.682;9.022;2023-05-29T13:10:16;5.18;;;4.60;;
42802;SDS011;28447;48.682;9.022;2023-05-29T13:12:43;5.20;;;4.57;;
42802;SDS011;28447;48.682;9.022;2023-05-29T13:15:10;5.38;;;4.88;;
42802;SDS011;28447;48.682;9.022;2023-05-29T13:17:37;5.75;;;4.68;;
42802;SDS011;28447;48.682;9.022;2023-05-29T13:20:09;4.55;;;4.15;;
42802;SDS011;28447;48.682;9.022;2023-05-29T13:22:37;5.03;;;4.53;;
42802;SDS011;28447;48.682;9.022;2023-05-29T13:25:03;7.28;;;4.72;;
42802;SDS011;28447;48.682;9.022;2023-05-29T13:27:31;5.55;;;5.05;;
42802;SDS011;28447;48.682;9.022;2023-05-29T13:29:58;5.10;;;4.60;;
42802;SDS011;28447;48.682;9.022;2023-05-29T13:32:24;6.47;;;4.65;;
42802;SDS011;28447;48.682;9.022;2023-05-29T13:34:49;8.02;;;4.55;;
42802;SDS011;28447;48.682;9.022;2023-05-29T13:37:15;5.40;;;4.70;;
42802;SDS011;28447;48.682;9.022;2023-05-29T13:39:41;7.15;;;4.90;;
42802;SDS011;28447;48.682;9.022;2023-05-29T13:42:07;4.50;;;4.10;;
42802;SDS011;28447;48.682;9.022;2023-05-29T13:44:33;7.15;;;4.28;;
42802;SDS011;28447;48.682;9.022;2023-05-29T13:46:59;4.95;;;4.30;;
42802;SDS011;28447;48.682;9.022;2023-05-29T13:49:25;4.95;;;4.45;;
42802;SDS011;28447;48.682;9.022;2023-05-29T13:51:51;6.22;;;5.28;;
42802;SDS011;28447;48.682;9.022;2023-05-29T13:54:17;5.30;;;4.65;;
42802;SDS011;28447;48.682;9.022;2023-05-29T13:56:43;5.28;;;4.57;;
42802;SDS011;28447;48.682;9.022;2023-05-29T13:59:08;4.75;;;4.35;;
42802;SDS011;28447;48.682;9.022;2023-05-29T14:01:34;6.13;;;4.90;;
42802;SDS011;28447;48.682;9.022;2023-05-29T14:04:00;6.00;;;4.50;;
42802;SDS011;28447;48.682;9.022;2023-05-29T14:06:26;6.45;;;5.25;;
42802;SDS011;28447;48.682;9.022;2023-05-29T14:08:52;6.28;;;5.22;;
42802;SDS011;28447;48.682;9.022;2023-05-29T14:11:18;6.15;;;4.85;;
42802;SDS011;28447;48.682;9.022;2023-05-29T14:13:43;5.60;;;5.00;;
42802;SDS011;28447;48.682;9.022;2023-05-29T14:16:10;10.38;;;4.95;;
42802;SDS011;28447;48.682;9.022;2023-05-29T14:18:36;4.97;;;4.40;;
42802;SDS011;28447;48.682;9.022;2023-05-29T14:21:02;4.55;;;4.15;;
42802;SDS011;28447;48.682;9.022;2023-05-29T14:23:28;8.07;;;4.53;;
42802;SDS011;28447;48.682;9.022;2023-05-29T14:25:53;4.68;;;4.28;;
42802;SDS011;28447;48.682;9.022;2023-05-29T14:28:19;5.90;;;4.97;;
42802;SDS011;28447;48.682;9.022;2023-05-29T14:30:45;5.68;;;5.13;;
42802;SDS011;28447;48.682;9.022;2023-05-29T14:33:10;5.95;;;5.38;;
42802;SDS011;28447;48.682;9.022;2023-05-29T14:35:36;5.40;;;4.75;;
42802;SDS011;28447;48.682;9.022;2023-05-29T14:38:02;5.80;;;4.68;;
42802;SDS011;28447;48.682;9.022;2023-05-29T14:40:27;5.90;;;5.07;;
42802;SDS011;28447;48.682;9.022;2023-05-29T14:42:53;5.68;;;5.07;;
42802;SDS011;28447;48.682;9.022;2023-05-29T14:45:19;4.90;;;4.40;;
42802;SDS011;28447;48.682;9.022;2023-05-29T14:47:45;4.90;;;4.47;;
42802;SDS011;28447;48.682;9.022;2023-05-29T14:50:10;5.93;;;5.30;;
42802;SDS011;28447;48.682;9.022;2023-05-29T14:52:36;5.18;;;4.68;;
42802;SDS011;28447;48.682;9.022;2023-05-29T14:55:03;6.25;;;5.18;;
42802;SDS011;28447;48.682;9.022;2023-05-29T14:57:29;6.30;;;4.72;;
42802;SDS011;28447;48.682;9.022;2023-05-29T14:59:57;5.15;;;4.65;;
42802;SDS011;28447;48.682;9.022;2023-05-29T15:02:23;5.35;;;4.30;;
42802;SDS011;28447;48.682;9.022;2023-05-29T15:04:48;5.97;;;4.53;;
42802;SDS011;28447;48.682;9.022;2023-05-29T15:07:15;7.22;;;4.82;;
42802;SDS011;28447;48.682;9.022;2023-05-29T15:09:41;5.90;;;5.00;;
42802;SDS011;28447;48.682;9.022;2023-05-29T15:12:07;6.18;;;4.68;;
42802;SDS011;28447;48.682;9.022;2023-05-29T15:14:33;8.77;;;4.93;;
42802;SDS011;28447;48.682;9.022;2023-05-29T15:16:59;5.85;;;5.03;;
42802;SDS011;28447;48.682;9.022;2023-05-29T15:19:25;5.32;;;4.85;;
42802;SDS011;28447;48.682;9.022;2023-05-29T15:21:51;5.65;;;5.00;;
42802;SDS011;28447;48.682;9.022;2023-05-29T15:24:17;6.88;;;4.80;;
42802;SDS011;28447;48.682;9.022;2023-05-29T15:26:42;5.85;;;5.25;;
42802;SDS011;28447;48.682;9.022;2023-05-29T15:29:08;5.63;;;5.03;;
42802;SDS011;28447;48.682;9.022;2023-05-29T15:31:34;5.68;;;4.95;;
42802;SDS011;28447;48.682;9.022;2023-05-29T15:34:00;5.43;;;4.93;;
42802;SDS011;28447;48.682;9.022;2023-05-29T15:36:26;5.07;;;4.57;;
42802;SDS011;28447;48.682;9.022;2023-05-29T15:38:52;5.32;;;4.72;;
42802;SDS011;28447;48.682;9.022;2023-05-29T15:41:18;4.80;;;4.30;;
42802;SDS011;28447;48.682;9.022;2023-05-29T15:43:44;5.40;;;4.90;;
42802;SDS011;28447;48.682;9.022;2023-05-29T15:46:10;7.85;;;5.18;;
42802;SDS011;28447;48.682;9.022;2023-05-29T15:48:36;7.90;;;4.90;;
42802;SDS011;28447;48.682;9.022;2023-05-29T15:51:01;6.50;;;4.82;;
42802;SDS011;28447;48.682;9.022;2023-05-29T15:53:27;7.07;;;4.80;;
42802;SDS011;28447;48.682;9.022;2023-05-29T15:55:54;6.13;;;4.75;;
42802;SDS011;28447;48.682;9.022;2023-05-29T15:58:19;6.60;;;3.97;;
42802;SDS011;28447;48.682;9.022;2023-05-29T16:00:45;4.85;;;4.22;;
42802;SDS011;28447;48.682;9.022;2023-05-29T16:03:11;5.20;;;4.70;;
42802;SDS011;28447;48.682;9.022;2023-05-29T16:05:37;7.38;;;5.00;;
42802;SDS011;28447;48.682;9.022;2023-05-29T16:08:02;6.90;;;4.80;;
42802;SDS011;28447;48.682;9.022;2023-05-29T16:10:28;5.15;;;4.65;;
42802;SDS011;28447;48.682;9.022;2023-05-29T16:12:54;7.18;;;4.20;;
42802;SDS011;28447;48.682;9.022;2023-05-29T16:15:20;5.65;;;4.63;;
42802;SDS011;28447;48.682;9.022;2023-05-29T16:17:46;5.53;;;4.32;;
42802;SDS011;28447;48.682;9.022;2023-05-29T16:20:12;5.38;;;4.80;;
42802;SDS011;28447;48.682;9.022;2023-05-29T16:22:38;7.03;;;4.05;;
42802;SDS011;28447;48.682;9.022;2023-05-29T16:25:04;5.45;;;4.60;;
42802;SDS011;28447;48.682;9.022;2023-05-29T16:27:31;5.65;;;4.25;;
42802;SDS011;28447;48.682;9.022;2023-05-29T16:29:57;18.15;;;4.80;;
42802;SDS011;28447;48.682;9.022;2023-05-29T16:32:23;5.85;;;4.47;;
42802;SDS011;28447;48.682;9.022;2023-05-29T16:34:50;6.20;;;4.40;;
42802;SDS011;28447;48.682;9.022;2023-05-29T16:37:17;9.90;;;4.18;;
42802;SDS011;28447;48.682;9.022;2023-05-29T16:39:42;7.00;;;4.60;;
42802;SDS011;28447;48.682;9.022;2023-05-29T16:42:08;8.90;;;5.35;;
42802;SDS011;28447;48.682;9.022;2023-05-29T16:44:34;5.80;;;4.13;;
42802;SDS011;28447;48.682;9.022;2023-05-29T16:47:00;6.47;;;4.30;;
42802;SDS011;28447;48.682;9.022;2023-05-29T16:49:26;6.35;;;4.38;;
42802;SDS011;28447;48.682;9.022;2023-05-29T16:51:52;5.32;;;4.30;;
42802;SDS011;28447;48.682;9.022;2023-05-29T16:54:17;5.93;;;4.82;;
42802;SDS011;28447;48.682;9.022;2023-05-29T16:56:43;7.57;;;4.25;;
42802;SDS011;28447;48.682;9.022;2023-05-29T16:59:09;5.18;;;3.90;;
42802;SDS011;28447;48.682;9.022;2023-05-29T17:01:36;7.32;;;4.38;;
42802;SDS011;28447;48.682;9.022;2023-05-29T17:04:01;6.40;;;4.03;;
42802;SDS011;28447;48.682;9.022;2023-05-29T17:06:27;7.63;;;4.22;;
42802;SDS011;28447;48.682;9.022;2023-05-29T17:08:53;5.35;;;4.13;;
42802;SDS011;28447;48.682;9.022;2023-05-29T17:11:19;5.75;;;4.13;;
42802;SDS011;28447;48.682;9.022;2023-05-29T17:13:44;5.68;;;3.90;;
42802;SDS011;28447;48.682;9.022;2023-05-29T17:16:10;7.38;;;3.72;;
42802;SDS011;28447;48.682;9.022;2023-05-29T17:18:36;8.68;;;4.20;;
42802;SDS011;28447;48.682;9.022;2023-05-29T17:21:01;4.40;;;3.78;;
42802;SDS011;28447;48.682;9.022;2023-05-29T17:23:27;4.72;;;3.97;;
42802;SDS011;28447;48.682;9.022;2023-05-29T17:25:53;10.98;;;4.57;;
42802;SDS011;28447;48.682;9.022;2023-05-29T17:28:19;11.00;;;4.53;;
42802;SDS011;28447;48.682;9.022;2023-05-29T17:30:45;7.97;;;3.90;;
42802;SDS011;28447;48.682;9.022;2023-05-29T17:33:11;13.60;;;4.82;;
42802;SDS011;28447;48.682;9.022;2023-05-29T17:35:36;6.20;;;4.10;;
42802;SDS011;28447;48.682;9.022;2023-05-29T17:38:02;7.53;;;4.25;;
42802;SDS011;28447;48.682;9.022;2023-05-29T17:40:29;15.18;;;4.35;;
42802;SDS011;28447;48.682;9.022;2023-05-29T17:42:54;6.45;;;4.32;;
42802;SDS011;28447;48.682;9.022;2023-05-29T17:45:20;4.25;;;3.67;;
42802;SDS011;28447;48.682;9.022;2023-05-29T17:47:45;6.35;;;4.60;;
42802;SDS011;28447;48.682;9.022;2023-05-29T17:50:11;5.15;;;3.67;;
42802;SDS011;28447;48.682;9.022;2023-05-29T17:52:37;6.05;;;4.43;;
42802;SDS011;28447;48.682;9.022;2023-05-29T17:55:05;5.90;;;4.28;;
42802;SDS011;28447;48.682;9.022;2023-05-29T17:57:31;6.75;;;4.55;;
42802;SDS011;28447;48.682;9.022;2023-05-29T17:59:57;5.43;;;4.25;;
42802;SDS011;28447;48.682;9.022;2023-05-29T18:02:24;6.13;;;4.45;;
42802;SDS011;28447;48.682;9.022;2023-05-29T18:04:50;15.00;;;4.53;;
42802;SDS011;28447;48.682;9.022;2023-05-29T18:07:16;6.45;;;4.07;;
42802;SDS011;28447;48.682;9.022;2023-05-29T18:09:45;6.03;;;4.32;;
42802;SDS011;28447;48.682;9.022;2023-05-29T18:12:11;8.27;;;4.63;;
42802;SDS011;28447;48.682;9.022;2023-05-29T18:14:37;7.00;;;4.30;;
42802;SDS011;28447;48.682;9.022;2023-05-29T18:17:04;7.50;;;4.60;;
42802;SDS011;28447;48.682;9.022;2023-05-29T18:19:30;8.73;;;5.00;;
42802;SDS011;28447;48.682;9.022;2023-05-29T18:21:56;4.83;;;3.90;;
42802;SDS011;28447;48.682;9.022;2023-05-29T18:24:22;8.33;;;4.33;;
42802;SDS011;28447;48.682;9.022;2023-05-29T18:26:47;6.73;;;3.97;;
42802;SDS011;28447;48.682;9.022;2023-05-29T18:29:13;4.90;;;4.40;;
42802;SDS011;28447;48.682;9.022;2023-05-29T18:31:39;8.07;;;4.73;;
42802;SDS011;28447;48.682;9.022;2023-05-29T18:34:05;7.20;;;5.27;;
42802;SDS011;28447;48.682;9.022;2023-05-29T18:36:30;6.00;;;4.43;;
42802;SDS011;28447;48.682;9.022;2023-05-29T18:38:56;5.13;;;4.47;;
42802;SDS011;28447;48.682;9.022;2023-05-29T18:41:22;7.40;;;4.80;;
42802;SDS011;28447;48.682;9.022;2023-05-29T18:43:48;6.50;;;4.20;;
42802;SDS011;28447;48.682;9.022;2023-05-29T18:46:14;7.83;;;4.67;;
42802;SDS011;28447;48.682;9.022;2023-05-29T18:48:40;6.20;;;4.20;;
42802;SDS011;28447;48.682;9.022;2023-05-29T18:51:06;5.87;;;4.07;;
42802;SDS011;28447;48.682;9.022;2023-05-29T18:53:32;5.63;;;4.00;;
42802;SDS011;28447;48.682;9.022;2023-05-29T18:55:58;4.93;;;4.20;;
42802;SDS011;28447;48.682;9.022;2023-05-29T18:58:23;8.57;;;4.77;;
42802;SDS011;28447;48.682;9.022;2023-05-29T19:00:49;6.90;;;5.20;;
42802;SDS011;28447;48.682;9.022;2023-05-29T19:03:15;9.27;;;5.80;;
42802;SDS011;28447;48.682;9.022;2023-05-29T19:05:41;8.40;;;5.43;;